This is the latest recevied weather packets stored in our database for station/object KD7CIH. If no packets are shown the sender has not sent any weather packets the latest 10 day(s).
| Time | Temp. | Humidity | Pressure | Rain* | Wind** | Luminosity | Snow |
|---|---|---|---|---|---|---|---|
| 1788089254 | 13.89° C | 72% | 1014.6 hPa | 0 mm | - | - | - |
| 1788088954 | 13.89° C | 73% | 1014.6 hPa | 0 mm | - | - | - |
| 1788088657 | 13.89° C | 70% | 1014.3 hPa | 0 mm | - | - | - |
| 1788088354 | 13.89° C | 72% | 1014.7 hPa | 0 mm | - | - | - |
| 1788088054 | 13.89° C | 73% | 1014.8 hPa | 0 mm | - | - | - |
| 1788087754 | 13.89° C | 73% | 1014.9 hPa | 0 mm | - | - | - |
| 1788087455 | 13.89° C | 73% | 1014.9 hPa | 0 mm | - | - | - |
| 1788087153 | 13.89° C | 71% | 1014.6 hPa | 0 mm | - | - | - |
| 1788086853 | 13.89° C | 71% | 1014.5 hPa | 0 mm | - | - | - |
| 1788086554 | 13.89° C | 69% | 1014.6 hPa | 0 mm | - | - | - |
| 1788086255 | 14.44° C | 69% | 1014.7 hPa | 0 mm | - | - | - |
| 1788085953 | 14.44° C | 68% | 1014.7 hPa | 0 mm | - | - | - |
| 1788085653 | 14.44° C | 69% | 1014.7 hPa | 0 mm | - | - | - |
| 1788085353 | 14.44° C | 70% | 1014.7 hPa | 0 mm | - | - | - |
| 1788085181 | 14.44° C | 68% | 1014.3 hPa | 0 mm | - | - | - |
| 1788084753 | 14.44° C | 68% | 1014.3 hPa | 0 mm | - | - | - |
| 1788084454 | 14.44° C | 67% | 1014.3 hPa | 0 mm | - | - | - |
| 1788084155 | 14.44° C | 68% | 1014.1 hPa | 0 mm | - | - | - |
| 1788083854 | 14.44° C | 68% | 1014.2 hPa | 0 mm | - | - | - |
| 1788083553 | 14.44° C | 69% | 1014.1 hPa | 0 mm | - | - | - |
| 1788083253 | 14.44° C | 70% | 1014 hPa | 0 mm | - | - | - |
| 1788082956 | 14.44° C | 70% | 1014.1 hPa | 0 mm | - | - | - |
| 1788082654 | 14.44° C | 71% | 1014 hPa | 0 mm | - | - | - |
| 1788082355 | 14.44° C | 71% | 1014.1 hPa | 0 mm | - | - | - |
| 1788082053 | 14.44° C | 71% | 1014 hPa | 0 mm | - | - | - |
* Rain latest hour (hover to see other rain measurements)
** Current wind speed in m/s (hover to see current wind gust speed)